Time;durP1;ratioP1;P1;durP2;ratioP2;P2;SDS_P1;SDS_P2;PMS_P1;PMS_P2;Temp;Humidity;BMP_temperature;BMP_pressure;BME280_temperature;BME280_humidity;BME280_pressure;Samples;Min_cycle;Max_cycle;Signal;HPM_P1;HPM_P2
2022/05/01 00:00:05;;;;;;;12.40;5.70;;;12.40;99.20;;;;;;5049952;28;20053;-53
2022/05/01 00:02:32;;;;;;;13.15;5.03;;;12.40;99.20;;;;;;5049835;28;20092;-54
2022/05/01 00:05:01;;;;;;;10.35;4.95;;;12.40;99.40;;;;;;5049874;28;20041;-55
2022/05/01 00:07:28;;;;;;;7.70;4.60;;;12.30;99.30;;;;;;5050369;28;20048;-57
2022/05/01 00:09:54;;;;;;;7.07;4.82;;;12.30;99.10;;;;;;5049974;28;20081;-54
2022/05/01 00:12:22;;;;;;;7.57;5.03;;;12.30;99.00;;;;;;5049763;28;20045;-54
2022/05/01 00:14:49;;;;;;;11.40;4.63;;;12.30;99.20;;;;;;5049923;28;20127;-59
2022/05/01 00:17:16;;;;;;;10.70;4.47;;;12.40;99.20;;;;;;5050025;28;20236;-55
2022/05/01 00:19:43;;;;;;;6.88;4.68;;;12.30;98.80;;;;;;5049679;28;20055;-54
2022/05/01 00:22:18;;;;;;;9.88;4.07;;;12.30;99.00;;;;;;5049057;28;20053;-51
2022/05/01 00:24:45;;;;;;;13.73;5.07;;;12.30;98.90;;;;;;5049388;28;20051;-54
2022/05/01 00:27:12;;;;;;;14.07;5.15;;;12.30;98.60;;;;;;5049545;28;20080;-54
2022/05/01 00:29:39;;;;;;;10.20;4.28;;;12.30;98.60;;;;;;5048613;28;20102;-57
2022/05/01 00:32:06;;;;;;;12.30;4.80;;;12.30;98.60;;;;;;5048980;28;20052;-57
2022/05/01 00:37:24;;;;;;;6.82;4.04;;;12.30;98.50;;;;;;4903109;28;10001206;-56
2022/05/01 00:39:51;;;;;;;7.82;4.63;;;12.30;98.40;;;;;;5046038;28;20303;-56
2022/05/01 00:42:18;;;;;;;8.30;5.22;;;12.30;98.20;;;;;;5048076;28;20055;-57
2022/05/01 00:44:45;;;;;;;6.53;4.75;;;12.30;98.10;;;;;;5049359;28;20045;-55
2022/05/01 00:47:12;;;;;;;8.50;4.00;;;12.30;98.00;;;;;;5049167;28;20085;-58
2022/05/01 00:49:39;;;;;;;8.65;4.07;;;12.30;97.90;;;;;;5049358;28;20098;-55
2022/05/01 00:52:09;;;;;;;6.88;3.55;;;12.30;97.70;;;;;;5049319;28;20131;-56
2022/05/01 00:54:39;;;;;;;7.03;4.40;;;12.30;97.90;;;;;;5046714;28;20072;-54
2022/05/01 00:57:06;;;;;;;9.80;3.80;;;12.30;97.40;;;;;;5049311;28;20072;-56
2022/05/01 00:59:34;;;;;;;7.18;3.70;;;12.30;97.20;;;;;;5049376;28;20084;-53
2022/05/01 01:02:01;;;;;;;8.00;4.72;;;12.30;97.10;;;;;;5047566;28;20568;-56
2022/05/01 01:04:27;;;;;;;6.07;3.75;;;12.40;97.00;;;;;;5048109;28;20056;-56
2022/05/01 01:06:54;;;;;;;5.57;3.03;;;12.40;96.60;;;;;;5047903;28;20250;-54
2022/05/01 01:09:21;;;;;;;3.95;2.85;;;12.40;96.30;;;;;;5036964;28;20049;-59
2022/05/01 01:12:53;;;;;;;8.95;4.07;;;12.40;96.30;;;;;;5048687;28;20068;-55
2022/05/01 01:14:35;;;;;;;4.97;3.10;;;12.40;96.20;;;;;;5049057;28;20045;-53
2022/05/01 01:17:02;;;;;;;5.15;3.63;;;12.40;96.40;;;;;;5048951;28;20493;-57
2022/05/01 01:19:28;;;;;;;5.57;3.08;;;12.40;96.00;;;;;;5049035;28;20131;-57
2022/05/01 01:21:55;;;;;;;5.10;3.92;;;12.40;95.90;;;;;;5048638;28;20144;-55
2022/05/01 01:24:22;;;;;;;5.45;3.50;;;12.40;95.90;;;;;;5049006;28;20076;-57
2022/05/01 01:26:49;;;;;;;8.93;5.53;;;12.40;95.90;;;;;;5047942;28;20045;-56
2022/05/01 01:32:12;;;;;;;7.80;3.08;;;12.40;95.70;;;;;;5003882;28;20054;-57
2022/05/01 01:34:39;;;;;;;7.53;3.72;;;12.30;95.70;;;;;;5029871;28;20076;-56
2022/05/01 01:37:06;;;;;;;5.32;3.70;;;12.30;95.70;;;;;;5047496;28;20143;-55
2022/05/01 01:39:34;;;;;;;5.25;3.13;;;12.30;95.70;;;;;;5047218;28;20052;-55
2022/05/01 01:42:04;;;;;;;3.67;3.17;;;12.30;95.60;;;;;;5048393;28;20053;-53
2022/05/01 01:44:29;;;;;;;5.88;3.78;;;12.30;95.50;;;;;;5047068;28;20059;-54
2022/05/01 01:46:56;;;;;;;6.90;3.65;;;12.30;95.60;;;;;;5047441;28;20056;-53
2022/05/01 01:49:23;;;;;;;8.35;3.42;;;12.30;95.60;;;;;;5048217;28;20084;-57
2022/05/01 01:51:50;;;;;;;10.05;3.63;;;12.30;95.50;;;;;;5048661;28;20110;-57
2022/05/01 01:54:16;;;;;;;9.55;4.40;;;12.30;95.60;;;;;;5048380;28;20118;-57
2022/05/01 01:56:43;;;;;;;6.90;3.60;;;12.30;95.60;;;;;;5048457;28;20547;-56
2022/05/01 01:59:11;;;;;;;10.43;4.47;;;12.30;95.60;;;;;;5048018;28;20080;-55
2022/05/01 02:01:42;;;;;;;7.38;3.97;;;12.30;95.70;;;;;;5048256;28;20115;-57
2022/05/01 02:04:10;;;;;;;7.97;3.40;;;12.30;95.60;;;;;;5047843;28;20049;-56
2022/05/01 02:06:37;;;;;;;8.45;3.88;;;12.30;95.70;;;;;;5048312;28;20565;-55
2022/05/01 02:09:06;;;;;;;9.65;4.45;;;12.30;95.60;;;;;;5046965;28;20068;-54
2022/05/01 02:11:36;;;;;;;8.55;4.80;;;12.20;95.60;;;;;;5048254;28;20045;-56
2022/05/01 02:14:05;;;;;;;9.05;4.38;;;12.20;95.70;;;;;;5047974;28;20119;-57
2022/05/01 02:16:32;;;;;;;7.90;3.88;;;12.20;95.70;;;;;;5048243;28;20063;-55
2022/05/01 02:18:58;;;;;;;6.97;4.40;;;12.20;95.90;;;;;;5047782;28;20048;-55
2022/05/01 02:21:35;;;;;;;7.18;3.95;;;12.20;95.70;;;;;;5048037;28;20049;-52
2022/05/01 02:24:09;;;;;;;8.70;4.68;;;12.20;95.90;;;;;;5048053;28;20057;-57
2022/05/01 02:26:36;;;;;;;5.15;3.95;;;12.20;95.90;;;;;;5044400;28;20041;-57
2022/05/01 02:29:09;;;;;;;10.50;4.63;;;12.20;95.80;;;;;;5048092;28;20076;-57
2022/05/01 02:31:41;;;;;;;5.97;4.30;;;12.10;96.10;;;;;;5047984;28;20052;-56
2022/05/01 02:34:08;;;;;;;10.18;4.55;;;12.20;95.90;;;;;;5047893;28;20076;-53
2022/05/01 02:36:35;;;;;;;7.93;4.75;;;12.10;95.90;;;;;;5047927;28;20237;-55
2022/05/01 02:39:02;;;;;;;14.30;4.57;;;12.10;96.10;;;;;;5048214;28;20077;-53
2022/05/01 02:41:29;;;;;;;6.60;5.00;;;12.10;96.10;;;;;;5047731;28;20103;-54
2022/05/01 02:43:56;;;;;;;11.15;5.63;;;12.10;96.20;;;;;;5048114;28;20079;-55
2022/05/01 02:46:26;;;;;;;11.32;4.25;;;12.10;96.40;;;;;;5048779;28;20076;-56
2022/05/01 02:48:53;;;;;;;8.82;4.97;;;12.10;96.30;;;;;;5051854;28;20561;-54
2022/05/01 02:51:20;;;;;;;12.70;5.60;;;12.10;96.20;;;;;;5051661;28;20119;-56
2022/05/01 02:53:47;;;;;;;6.97;5.00;;;12.10;96.40;;;;;;5051443;28;20045;-55
2022/05/01 02:56:13;;;;;;;12.40;5.72;;;12.00;96.40;;;;;;5051399;28;20080;-55
2022/05/01 02:58:40;;;;;;;8.93;5.22;;;12.00;96.40;;;;;;5051758;28;20045;-56
2022/05/01 03:01:07;;;;;;;11.07;5.72;;;12.10;96.40;;;;;;5051186;28;20147;-53
2022/05/01 03:03:35;;;;;;;7.72;5.35;;;12.00;96.90;;;;;;5051161;28;20122;-53
2022/05/01 03:06:01;;;;;;;8.85;5.10;;;12.00;96.60;;;;;;5051249;28;20056;-56
2022/05/01 03:08:28;;;;;;;8.77;5.45;;;12.00;96.50;;;;;;5051326;28;20136;-56
2022/05/01 03:10:54;;;;;;;8.00;5.40;;;12.00;96.50;;;;;;5051532;28;20491;-55
2022/05/01 03:13:21;;;;;;;12.07;6.07;;;12.00;96.50;;;;;;5051739;28;20515;-57
2022/05/01 03:15:47;;;;;;;7.63;5.60;;;12.00;96.80;;;;;;5051613;28;20049;-58
2022/05/01 03:23:46;;;;;;;12.02;7.15;;;12.00;96.80;;;;;;5050833;28;20081;-57
2022/05/01 03:26:13;;;;;;;12.60;6.35;;;12.00;96.70;;;;;;5051347;28;20139;-56
2022/05/01 03:28:39;;;;;;;9.60;5.63;;;12.00;96.60;;;;;;5049803;28;20124;-55
2022/05/01 03:31:09;;;;;;;9.15;5.13;;;12.10;96.60;;;;;;5050742;28;20088;-57
2022/05/01 03:33:36;;;;;;;10.52;6.00;;;12.10;96.60;;;;;;5049724;28;20508;-54
2022/05/01 03:36:06;;;;;;;8.55;4.95;;;12.10;96.60;;;;;;5050878;28;20123;-56
2022/05/01 03:38:37;;;;;;;11.80;5.28;;;12.10;96.70;;;;;;5050494;28;20099;-58
2022/05/01 03:41:05;;;;;;;7.80;5.22;;;12.10;96.60;;;;;;5050729;28;20092;-57
2022/05/01 03:43:32;;;;;;;11.75;6.32;;;12.10;96.50;;;;;;5049085;28;20133;-55
2022/05/01 03:46:00;;;;;;;8.75;5.43;;;12.00;96.40;;;;;;5049464;28;20084;-58
2022/05/01 03:48:27;;;;;;;10.23;5.53;;;12.00;96.50;;;;;;5050518;28;20053;-57
2022/05/01 03:50:54;;;;;;;15.10;7.88;;;12.00;96.40;;;;;;5050655;28;20076;-56
2022/05/01 03:53:21;;;;;;;9.48;5.50;;;12.00;96.50;;;;;;5050288;28;20140;-54
2022/05/01 03:55:48;;;;;;;9.88;5.78;;;12.00;96.50;;;;;;5050509;28;20045;-57
2022/05/01 03:58:15;;;;;;;10.10;5.50;;;12.00;96.50;;;;;;5050201;28;20127;-56
2022/05/01 04:00:44;;;;;;;10.35;5.60;;;12.00;96.40;;;;;;5050153;28;20064;-56
2022/05/01 04:03:12;;;;;;;9.43;5.28;;;12.00;96.30;;;;;;5041160;28;20096;-54
2022/05/01 04:05:40;;;;;;;8.90;5.38;;;12.00;96.20;;;;;;5032744;28;20046;-56
2022/05/01 04:08:08;;;;;;;11.18;4.82;;;12.00;96.20;;;;;;5037115;28;20076;-54
2022/05/01 04:10:39;;;;;;;11.20;5.53;;;12.00;96.20;;;;;;5050180;28;20064;-54
2022/05/01 04:13:06;;;;;;;11.45;5.20;;;12.00;96.10;;;;;;5049839;28;20586;-56
2022/05/01 04:15:33;;;;;;;8.35;5.55;;;12.00;96.10;;;;;;5039278;28;20128;-53
2022/05/01 04:18:02;;;;;;;7.72;4.82;;;12.00;96.10;;;;;;5050026;28;20099;-57
2022/05/01 04:20:29;;;;;;;14.35;5.15;;;12.00;96.00;;;;;;5049917;28;20045;-60
2022/05/01 04:22:56;;;;;;;9.48;4.38;;;12.00;96.00;;;;;;5049919;28;20091;-54
2022/05/01 04:25:29;;;;;;;6.35;4.82;;;12.00;96.00;;;;;;5049787;28;20080;-56
2022/05/01 04:28:01;;;;;;;9.70;5.00;;;12.00;95.90;;;;;;5049923;28;20071;-56
2022/05/01 04:30:29;;;;;;;8.73;4.57;;;12.00;95.90;;;;;;5049861;28;20474;-56
2022/05/01 04:32:57;;;;;;;8.27;4.47;;;12.00;95.90;;;;;;5049170;28;20128;-55
2022/05/01 04:35:29;;;;;;;7.28;4.85;;;12.00;95.80;;;;;;5049435;28;20087;-55
2022/05/01 04:37:59;;;;;;;9.13;4.78;;;12.00;95.90;;;;;;5049651;28;20055;-57
2022/05/01 04:40:35;;;;;;;10.75;4.95;;;12.00;95.80;;;;;;5049516;28;20059;-54
2022/05/01 04:43:08;;;;;;;6.72;4.57;;;12.00;95.90;;;;;;5049805;28;20080;-56
2022/05/01 04:45:37;;;;;;;6.65;5.38;;;12.00;96.00;;;;;;5049311;28;20466;-57
2022/05/01 04:48:04;;;;;;;6.60;4.40;;;12.00;95.90;;;;;;5048425;28;20057;-55
2022/05/01 04:50:31;;;;;;;8.30;5.75;;;12.00;95.80;;;;;;5047716;28;20037;-57
2022/05/01 04:53:00;;;;;;;5.85;4.65;;;12.00;95.80;;;;;;5049557;28;20099;-56
2022/05/01 04:55:27;;;;;;;7.45;4.60;;;12.00;95.80;;;;;;5049163;28;20088;-56
2022/05/01 04:57:54;;;;;;;10.20;4.55;;;11.90;95.70;;;;;;5048158;28;20499;-57
2022/05/01 05:00:21;;;;;;;11.88;5.28;;;12.00;95.70;;;;;;5048902;28;20290;-56
2022/05/01 05:02:49;;;;;;;8.38;4.88;;;12.00;95.80;;;;;;5047520;28;20510;-56
2022/05/01 05:05:17;;;;;;;6.78;4.38;;;12.00;95.80;;;;;;5049014;28;20044;-55
2022/05/01 05:07:43;;;;;;;12.48;4.90;;;12.00;95.80;;;;;;5048963;28;20141;-54
2022/05/01 05:10:10;;;;;;;8.48;4.55;;;12.00;95.80;;;;;;5047137;28;20128;-56
2022/05/01 05:12:38;;;;;;;11.40;4.80;;;12.00;95.80;;;;;;5049035;28;20091;-56
2022/05/01 05:15:08;;;;;;;8.55;4.55;;;12.00;95.80;;;;;;5048871;28;20121;-55
2022/05/01 05:17:36;;;;;;;8.38;4.15;;;12.00;95.80;;;;;;5048819;28;20145;-56
2022/05/01 05:20:04;;;;;;;8.25;4.75;;;12.00;95.70;;;;;;5048635;28;20120;-58
2022/05/01 05:22:31;;;;;;;8.27;4.57;;;12.00;95.70;;;;;;5048682;28;20049;-57
2022/05/01 05:24:58;;;;;;;6.57;4.25;;;12.00;95.60;;;;;;5048505;28;20084;-56
2022/05/01 05:27:25;;;;;;;6.95;4.20;;;12.00;95.70;;;;;;5047531;28;20400;-58
2022/05/01 05:29:53;;;;;;;7.63;4.50;;;12.00;95.60;;;;;;5049239;28;20081;-59
2022/05/01 05:32:20;;;;;;;12.65;4.57;;;12.10;95.70;;;;;;5048805;28;20158;-60
2022/05/01 05:34:47;;;;;;;7.57;4.60;;;12.00;95.60;;;;;;5047797;28;20084;-54
2022/05/01 05:37:15;;;;;;;7.82;4.45;;;12.10;95.60;;;;;;5048607;28;20370;-57
2022/05/01 05:39:41;;;;;;;8.10;4.50;;;12.10;95.50;;;;;;5049206;28;20080;-56
2022/05/01 05:42:09;;;;;;;8.77;4.70;;;12.10;95.50;;;;;;5048383;28;20092;-56
2022/05/01 05:44:36;;;;;;;8.38;4.75;;;12.10;95.60;;;;;;5048552;28;20479;-56
2022/05/01 05:47:03;;;;;;;7.97;4.70;;;12.00;95.50;;;;;;5048888;28;20097;-56
2022/05/01 05:49:31;;;;;;;6.85;4.78;;;12.10;95.50;;;;;;5048726;28;20056;-57
2022/05/01 05:51:58;;;;;;;12.02;4.80;;;12.20;95.50;;;;;;5048456;28;20084;-56
2022/05/01 05:54:25;;;;;;;5.78;4.40;;;12.20;95.40;;;;;;5048403;28;20072;-54
2022/05/01 05:56:52;;;;;;;11.95;5.00;;;12.20;95.30;;;;;;5048128;28;20084;-54
2022/05/01 05:59:19;;;;;;;7.47;4.43;;;12.30;95.30;;;;;;5048124;28;20091;-55
2022/05/01 06:01:45;;;;;;;12.20;4.57;;;12.40;95.40;;;;;;5047602;28;20079;-57
2022/05/01 06:04:13;;;;;;;6.65;4.45;;;12.30;95.20;;;;;;5048058;28;20064;-57
2022/05/01 06:06:39;;;;;;;8.88;3.85;;;12.40;95.30;;;;;;5048063;28;20041;-55
2022/05/01 06:09:07;;;;;;;8.02;5.00;;;12.40;95.50;;;;;;5047692;28;20045;-56
2022/05/01 06:11:35;;;;;;;8.57;4.78;;;12.40;95.20;;;;;;5046850;28;20140;-58
2022/05/01 06:14:03;;;;;;;7.63;3.95;;;12.50;95.30;;;;;;5044729;28;20049;-56
2022/05/01 06:16:31;;;;;;;6.80;4.93;;;12.50;95.30;;;;;;5048323;28;20045;-55
2022/05/01 06:18:59;;;;;;;7.55;4.88;;;12.50;95.30;;;;;;5046834;28;20076;-53
2022/05/01 06:21:26;;;;;;;7.15;4.78;;;12.60;95.20;;;;;;5049064;28;20555;-56
2022/05/01 06:23:53;;;;;;;12.40;5.25;;;12.60;94.70;;;;;;5051845;28;20238;-54
2022/05/01 06:26:20;;;;;;;7.80;4.43;;;12.60;94.60;;;;;;5052062;28;20049;-56
2022/05/01 06:28:52;;;;;;;11.35;5.03;;;12.60;94.80;;;;;;5052029;28;20049;-55
2022/05/01 06:31:18;;;;;;;7.38;4.88;;;12.60;94.60;;;;;;5051986;28;20208;-53
2022/05/01 06:33:45;;;;;;;8.73;4.70;;;12.60;94.40;;;;;;5051495;28;20053;-57
2022/05/01 06:36:19;;;;;;;6.78;4.40;;;12.70;94.60;;;;;;5050295;28;20045;-52
2022/05/01 06:38:47;;;;;;;9.95;4.43;;;12.70;94.10;;;;;;5049993;28;20120;-52
2022/05/01 06:41:14;;;;;;;12.20;5.28;;;12.70;94.50;;;;;;5051509;28;20041;-56
2022/05/01 06:43:41;;;;;;;14.75;5.28;;;12.80;94.60;;;;;;5051147;28;20566;-55
2022/05/01 06:46:07;;;;;;;7.93;4.55;;;12.90;94.10;;;;;;5051308;28;20136;-53
2022/05/01 06:48:34;;;;;;;10.93;4.07;;;12.90;94.20;;;;;;5051219;28;20044;-55
2022/05/01 06:51:01;;;;;;;8.07;4.45;;;13.00;94.40;;;;;;5051296;28;20069;-57
2022/05/01 06:53:28;;;;;;;8.77;4.88;;;13.00;94.20;;;;;;5050700;28;20049;-55
2022/05/01 06:55:56;;;;;;;8.68;5.32;;;13.10;94.10;;;;;;5051227;28;20527;-55
2022/05/01 06:58:22;;;;;;;8.02;5.28;;;13.20;93.90;;;;;;5051459;28;20072;-57
2022/05/01 07:00:51;;;;;;;8.70;4.88;;;13.20;94.00;;;;;;5051163;28;20087;-56
2022/05/01 07:03:21;;;;;;;10.48;5.03;;;13.30;93.70;;;;;;5050661;28;20084;-49
2022/05/01 07:05:49;;;;;;;9.23;5.07;;;13.30;93.60;;;;;;5047800;28;20041;-53
2022/05/01 07:08:15;;;;;;;9.85;5.53;;;13.30;93.50;;;;;;5051220;28;20091;-54
2022/05/01 07:10:42;;;;;;;6.40;4.50;;;13.40;93.20;;;;;;5049407;28;20071;-55
2022/05/01 07:13:10;;;;;;;10.07;4.47;;;13.40;93.30;;;;;;5051073;28;20079;-53
2022/05/01 07:15:38;;;;;;;7.45;4.00;;;13.50;92.80;;;;;;5050828;28;20053;-57
2022/05/01 07:18:05;;;;;;;8.27;4.90;;;13.60;92.80;;;;;;5051085;28;20056;-56
2022/05/01 07:20:34;;;;;;;9.30;4.65;;;13.70;92.70;;;;;;5050733;28;20117;-58
2022/05/01 07:23:02;;;;;;;11.30;5.50;;;13.80;92.50;;;;;;5051112;28;20471;-57
2022/05/01 07:25:29;;;;;;;9.57;5.13;;;13.90;92.50;;;;;;5050432;28;20048;-55
2022/05/01 07:27:56;;;;;;;6.45;4.03;;;14.00;91.90;;;;;;5050660;28;20081;-56
2022/05/01 07:30:23;;;;;;;8.18;4.35;;;13.90;90.90;;;;;;5050346;28;20077;-54
2022/05/01 07:32:50;;;;;;;7.10;3.60;;;13.90;90.70;;;;;;5049986;28;20053;-53
2022/05/01 07:35:16;;;;;;;8.25;4.22;;;13.90;90.40;;;;;;5050017;28;20510;-53
2022/05/01 07:37:43;;;;;;;7.10;3.97;;;13.90;89.20;;;;;;5050934;28;20140;-55
2022/05/01 07:40:11;;;;;;;8.35;4.35;;;13.90;89.00;;;;;;5049900;28;20052;-58
2022/05/01 07:42:37;;;;;;;5.20;3.25;;;13.90;89.20;;;;;;5048802;28;20037;-59
2022/05/01 07:45:04;;;;;;;5.65;2.83;;;14.10;90.10;;;;;;5048336;28;20099;-59
2022/05/01 07:47:31;;;;;;;6.72;3.05;;;14.10;86.30;;;;;;5048022;28;20135;-58
2022/05/01 07:49:58;;;;;;;4.72;3.28;;;14.20;84.60;;;;;;5048609;28;20068;-59
2022/05/01 07:52:25;;;;;;;6.22;2.95;;;14.10;86.60;;;;;;5045902;28;20099;-59
2022/05/01 07:54:52;;;;;;;11.73;4.65;;;14.20;86.60;;;;;;5048078;28;20040;-60
2022/05/01 07:57:20;;;;;;;5.35;2.92;;;14.20;86.50;;;;;;5047915;28;20056;-58
2022/05/01 07:59:47;;;;;;;5.05;2.95;;;14.20;85.50;;;;;;5045502;28;20073;-57
2022/05/01 08:02:15;;;;;;;8.63;3.25;;;14.20;87.00;;;;;;5047405;28;20056;-60
2022/05/01 08:04:42;;;;;;;5.80;3.50;;;14.20;87.50;;;;;;5047942;28;20083;-58
2022/05/01 08:07:14;;;;;;;6.20;3.20;;;14.30;85.90;;;;;;5047857;28;20045;-58
2022/05/01 08:09:41;;;;;;;6.95;3.95;;;14.30;87.50;;;;;;5046675;28;20527;-58
2022/05/01 08:12:09;;;;;;;5.75;3.25;;;14.30;86.60;;;;;;5047246;28;20124;-59
2022/05/01 08:14:37;;;;;;;5.72;3.03;;;14.40;87.50;;;;;;5046589;28;20053;-59
2022/05/01 08:17:04;;;;;;;8.60;3.08;;;14.40;85.70;;;;;;5048717;28;20075;-60
2022/05/01 08:22:16;;;;;;;8.30;3.58;;;14.50;86.60;;;;;;5047170;28;20056;-58
2022/05/01 08:24:43;;;;;;;4.10;2.88;;;14.40;83.60;;;;;;5048302;28;20082;-58
2022/05/01 08:27:10;;;;;;;6.60;2.83;;;14.40;85.90;;;;;;5048402;28;20127;-58
2022/05/01 08:29:38;;;;;;;4.97;3.10;;;14.40;84.70;;;;;;5048507;28;20120;-58
2022/05/01 08:32:06;;;;;;;7.82;2.92;;;14.50;81.70;;;;;;5047122;28;20140;-58
2022/05/01 08:34:33;;;;;;;7.28;3.30;;;14.50;78.70;;;;;;5047549;28;20080;-58
2022/05/01 08:36:59;;;;;;;5.15;3.05;;;14.50;79.80;;;;;;5046963;28;20096;-57
2022/05/01 08:39:26;;;;;;;7.50;2.97;;;14.60;81.00;;;;;;5047752;28;20091;-55
2022/05/01 08:41:53;;;;;;;8.32;2.85;;;14.80;82.60;;;;;;5047732;28;20128;-59
2022/05/01 08:44:30;;;;;;;5.40;3.20;;;14.80;81.40;;;;;;5047639;28;20127;-60
2022/05/01 08:47:02;;;;;;;7.28;3.05;;;14.90;79.60;;;;;;5045829;28;20095;-57
2022/05/01 08:49:32;;;;;;;3.85;2.97;;;14.90;78.80;;;;;;5045139;28;20128;-59
2022/05/01 08:52:00;;;;;;;6.88;3.25;;;15.00;80.20;;;;;;5043829;28;20092;-58
2022/05/01 08:54:26;;;;;;;4.88;2.85;;;15.10;78.70;;;;;;5044007;28;20147;-58
2022/05/01 08:56:53;;;;;;;6.90;3.28;;;15.10;79.90;;;;;;5044800;28;20102;-58
2022/05/01 08:59:20;;;;;;;5.82;3.05;;;15.10;81.30;;;;;;5044749;28;20053;-58
2022/05/01 09:01:47;;;;;;;8.68;2.75;;;15.20;79.10;;;;;;5045029;28;20048;-58
2022/05/01 09:04:14;;;;;;;5.63;2.92;;;15.20;79.20;;;;;;5043781;28;20052;-59
2022/05/01 09:06:44;;;;;;;5.93;2.78;;;15.10;73.60;;;;;;5045577;28;20371;-56
2022/05/01 09:09:15;;;;;;;8.27;3.08;;;15.20;78.90;;;;;;5046878;28;20080;-58
2022/05/01 09:14:28;;;;;;;6.65;3.00;;;15.40;79.80;;;;;;5043866;28;20045;-56
2022/05/01 09:17:21;;;;;;;4.82;2.85;;;15.60;79.90;;;;;;5047015;28;20080;-58
2022/05/01 09:20:07;;;;;;;4.57;3.23;;;15.60;76.00;;;;;;5046647;28;20053;-59
2022/05/01 09:22:51;;;;;;;4.80;2.60;;;15.50;73.50;;;;;;5048091;28;20053;-59
2022/05/01 09:25:19;;;;;;;11.13;3.38;;;15.50;74.10;;;;;;5046878;28;20128;-57
2022/05/01 09:27:46;;;;;;;10.55;4.25;;;15.60;78.10;;;;;;5046434;28;20110;-58
2022/05/01 09:30:15;;;;;;;4.75;2.75;;;15.60;77.70;;;;;;5047659;28;20132;-57
2022/05/01 09:32:43;;;;;;;5.15;2.53;;;15.70;77.90;;;;;;5047762;28;20052;-58
2022/05/01 09:35:21;;;;;;;5.72;2.90;;;15.80;77.00;;;;;;5047557;28;20128;-57
2022/05/01 09:37:48;;;;;;;10.45;2.35;;;15.90;72.30;;;;;;5048005;28;20049;-59
2022/05/01 09:40:31;;;;;;;6.95;2.92;;;15.90;75.90;;;;;;5046434;28;20547;-57
2022/05/01 09:42:57;;;;;;;7.65;3.45;;;15.70;72.30;;;;;;5027897;28;20077;-59
2022/05/01 09:45:29;;;;;;;6.00;3.67;;;15.60;77.30;;;;;;5042170;28;20135;-58
2022/05/01 09:47:56;;;;;;;6.18;2.88;;;15.70;74.30;;;;;;5027808;28;20061;-59
2022/05/01 09:50:40;;;;;;;7.05;2.85;;;16.00;75.80;;;;;;5041913;28;20618;-57
2022/05/01 09:53:07;;;;;;;11.68;4.32;;;16.10;72.30;;;;;;5047445;28;20503;-58
2022/05/01 09:55:34;;;;;;;7.38;3.28;;;16.20;75.50;;;;;;5047393;28;20044;-58
2022/05/01 09:58:11;;;;;;;6.40;3.05;;;16.20;74.60;;;;;;5047713;28;20075;-56
2022/05/01 10:00:46;;;;;;;6.00;3.17;;;16.10;71.50;;;;;;5047259;28;20075;-57
2022/05/01 10:03:27;;;;;;;7.38;3.03;;;16.20;72.60;;;;;;5047813;28;20053;-58
2022/05/01 10:05:56;;;;;;;7.13;3.80;;;16.30;73.10;;;;;;5047452;28;20041;-57
2022/05/01 10:08:23;;;;;;;5.55;3.20;;;16.40;72.30;;;;;;5047763;28;20049;-58
2022/05/01 10:10:53;;;;;;;5.32;2.72;;;16.50;72.40;;;;;;5047653;28;20045;-59
2022/05/01 10:13:20;;;;;;;5.60;2.65;;;16.60;70.70;;;;;;5046413;28;20136;-62
2022/05/01 10:16:06;;;;;;;5.72;3.42;;;16.80;71.80;;;;;;5046587;28;20419;-59
2022/05/01 10:18:33;;;;;;;8.43;3.95;;;16.80;71.40;;;;;;5048148;28;20059;-58
2022/05/01 10:21:00;;;;;;;4.70;2.83;;;16.30;69.00;;;;;;5047608;28;20106;-59
2022/05/01 10:23:27;;;;;;;9.52;3.28;;;16.40;72.80;;;;;;5047794;28;20092;-59
2022/05/01 10:26:09;;;;;;;8.65;2.78;;;16.30;73.50;;;;;;5047293;28;20544;-59
2022/05/01 10:29:34;;;;;;;6.85;4.13;;;16.30;72.40;;;;;;5047503;28;20132;-58
2022/05/01 10:32:21;;;;;;;8.10;3.00;;;16.30;72.60;;;;;;5005081;28;20070;-58
2022/05/01 10:35:25;;;;;;;9.65;3.60;;;16.30;73.80;;;;;;4985530;28;20054;-58
2022/05/01 10:38:12;;;;;;;7.15;3.72;;;16.40;73.00;;;;;;5038271;28;20091;-58
2022/05/01 10:40:51;;;;;;;6.80;3.67;;;16.30;71.50;;;;;;5047213;28;20068;-58
2022/05/01 10:43:26;;;;;;;7.68;3.55;;;16.10;71.90;;;;;;5046411;28;20056;-58
2022/05/01 10:45:54;;;;;;;8.43;4.18;;;16.30;71.10;;;;;;5047392;28;20052;-59
2022/05/01 10:48:35;;;;;;;5.13;4.10;;;16.30;72.90;;;;;;5047380;28;20041;-58
2022/05/01 10:51:38;;;;;;;10.20;4.30;;;16.50;74.00;;;;;;5047487;28;20150;-59
2022/05/01 10:54:17;;;;;;;4.07;2.80;;;16.70;72.80;;;;;;5038807;28;20048;-60
2022/05/01 10:56:48;;;;;;;7.72;4.13;;;16.60;71.80;;;;;;5046568;28;20044;-57
2022/05/01 10:59:39;;;;;;;9.68;3.38;;;16.50;73.30;;;;;;5046955;28;20049;-58
2022/05/01 11:02:24;;;;;;;6.93;3.67;;;16.40;73.50;;;;;;5046846;28;20053;-56
2022/05/01 11:04:52;;;;;;;11.27;3.80;;;16.50;70.50;;;;;;5046119;28;20079;-58
2022/05/01 11:07:20;;;;;;;5.15;3.35;;;16.40;72.00;;;;;;5046468;28;20208;-58
2022/05/01 11:09:47;;;;;;;6.47;3.28;;;16.50;73.40;;;;;;5049695;28;20053;-58
2022/05/01 11:12:19;;;;;;;5.70;3.40;;;16.30;72.00;;;;;;5049387;28;20072;-59
2022/05/01 11:14:59;;;;;;;8.35;3.50;;;16.20;72.10;;;;;;5051157;28;20068;-58
2022/05/01 11:17:28;;;;;;;8.93;3.53;;;16.10;73.30;;;;;;5050703;28;20052;-57
2022/05/01 11:20:24;;;;;;;8.48;4.03;;;16.10;74.80;;;;;;5050493;28;20040;-58
2022/05/01 11:22:51;;;;;;;5.90;3.47;;;16.10;74.30;;;;;;5050672;28;20041;-56
2022/05/01 11:25:19;;;;;;;6.85;3.33;;;16.20;74.70;;;;;;5050897;28;20385;-57
2022/05/01 11:27:53;;;;;;;10.73;3.55;;;16.30;75.40;;;;;;5048894;28;20072;-57
2022/05/01 11:30:26;;;;;;;5.70;3.63;;;16.40;73.40;;;;;;5050272;28;20052;-56
2022/05/01 11:33:02;;;;;;;9.50;3.60;;;16.30;74.20;;;;;;5050068;28;20049;-58
2022/05/01 11:35:53;;;;;;;6.07;3.78;;;16.10;74.10;;;;;;5050324;28;20077;-57
2022/05/01 11:38:23;;;;;;;7.80;4.07;;;15.90;76.00;;;;;;5050069;28;20107;-57
2022/05/01 11:40:59;;;;;;;8.52;4.20;;;15.90;77.60;;;;;;5050342;28;20049;-58
2022/05/01 11:43:28;;;;;;;9.93;5.13;;;16.00;81.20;;;;;;5050015;28;20360;-58
2022/05/01 11:45:56;;;;;;;7.18;4.00;;;15.90;79.30;;;;;;5050166;28;20045;-55
2022/05/01 11:48:23;;;;;;;9.80;3.55;;;15.90;80.70;;;;;;5049899;28;20277;-59
2022/05/01 11:50:51;;;;;;;6.60;4.15;;;15.90;80.90;;;;;;5050094;28;20076;-57
2022/05/01 11:53:24;;;;;;;9.07;4.50;;;15.80;79.80;;;;;;5050291;28;20044;-58
2022/05/01 12:04:33;;;;;;;8.27;4.18;;;15.40;86.90;;;;;;5049325;28;20128;-58
2022/05/01 12:07:17;;;;;;;8.43;4.47;;;15.10;87.00;;;;;;5048965;28;20136;-59
2022/05/01 12:09:48;;;;;;;5.85;3.92;;;14.90;89.80;;;;;;5049876;28;20041;-57
2022/05/01 12:12:17;;;;;;;10.07;4.22;;;14.80;89.00;;;;;;5048424;28;20136;-56
2022/05/01 12:14:44;;;;;;;10.00;4.32;;;14.90;90.50;;;;;;5049391;28;20561;-59
2022/05/01 12:17:12;;;;;;;8.50;4.68;;;14.70;91.00;;;;;;5048703;28;20076;-57
2022/05/01 12:19:40;;;;;;;8.02;4.00;;;14.60;90.70;;;;;;5049667;28;20045;-58
2022/05/01 12:22:12;;;;;;;6.03;4.05;;;14.60;90.90;;;;;;5049653;28;20045;-58
2022/05/01 12:24:39;;;;;;;6.03;3.50;;;14.50;90.10;;;;;;5049060;28;20048;-58
2022/05/01 12:27:06;;;;;;;7.15;3.67;;;14.60;91.00;;;;;;5049452;28;20132;-57
2022/05/01 12:29:36;;;;;;;7.78;4.30;;;14.50;90.30;;;;;;5049832;28;20137;-57
2022/05/01 12:32:07;;;;;;;6.20;4.70;;;14.50;90.90;;;;;;5048475;28;20045;-58
2022/05/01 12:34:55;;;;;;;9.00;4.20;;;14.50;91.50;;;;;;5044778;28;20144;-59
2022/05/01 12:37:29;;;;;;;6.10;3.92;;;14.60;91.30;;;;;;5039550;28;20296;-58
2022/05/01 12:40:03;;;;;;;10.27;5.05;;;14.40;90.80;;;;;;5049511;28;20045;-58
2022/05/01 12:45:40;;;;;;;9.70;5.88;;;14.30;90.80;;;;;;5049375;28;20076;-59
2022/05/01 12:48:08;;;;;;;11.68;4.80;;;14.50;90.90;;;;;;5049401;28;20076;-58
2022/05/01 12:50:37;;;;;;;8.07;4.35;;;14.60;90.40;;;;;;5049160;28;20144;-58
2022/05/01 12:53:23;;;;;;;9.10;4.65;;;14.60;90.60;;;;;;5049152;28;20132;-59
2022/05/01 12:55:51;;;;;;;8.02;4.38;;;14.80;91.20;;;;;;5046974;28;20049;-55
2022/05/01 12:58:28;;;;;;;7.43;5.10;;;14.80;90.50;;;;;;5047898;28;20099;-57
2022/05/01 13:00:55;;;;;;;12.07;4.97;;;14.70;91.10;;;;;;5048620;28;20085;-60
2022/05/01 13:03:37;;;;;;;8.23;5.38;;;14.70;91.70;;;;;;5049058;28;20508;-59
2022/05/01 13:06:04;;;;;;;7.30;4.65;;;14.80;93.70;;;;;;5048800;28;20049;-57
2022/05/01 13:08:35;;;;;;;11.10;5.45;;;14.80;92.50;;;;;;5048980;28;20132;-58
2022/05/01 13:11:11;;;;;;;6.82;5.03;;;14.60;91.50;;;;;;5048548;28;20529;-58
2022/05/01 13:13:57;;;;;;;12.00;5.22;;;14.70;94.10;;;;;;5049025;28;20091;-56
2022/05/01 13:16:31;;;;;;;7.60;5.82;;;14.80;93.60;;;;;;5047765;28;20122;-57
2022/05/01 13:19:05;;;;;;;10.55;6.80;;;14.80;93.40;;;;;;5048260;28;20466;-56
2022/05/01 13:21:33;;;;;;;16.63;8.07;;;14.80;94.20;;;;;;5048190;28;20049;-55
2022/05/01 13:24:02;;;;;;;13.50;6.82;;;14.80;94.60;;;;;;5048493;28;20098;-54
2022/05/01 13:26:36;;;;;;;11.68;6.90;;;14.90;94.50;;;;;;5048136;28;20047;-58